Time;durP1;ratioP1;P1;durP2;ratioP2;P2;SDS_P1;SDS_P2;PMS_P1;PMS_P2;Temp;Humidity;BMP_temperature;BMP_pressure;BME280_temperature;BME280_humidity;BME280_pressure;Samples;Min_cycle;Max_cycle;Signal;HPM_P1;HPM_P2
2023/09/22 00:00:43;;;;;;;9.50;5.10;;;;;;;16.84;74.56;98818.63;105660;1260;71752;-23
2023/09/22 00:03:10;;;;;;;6.50;4.70;;;;;;;16.59;74.95;98816.73;105671;1260;61134;-23
2023/09/22 00:05:41;;;;;;;6.90;4.90;;;;;;;16.34;75.64;98814.63;105492;1258;61177;-23
2023/09/22 00:08:12;;;;;;;6.70;3.30;;;;;;;16.16;76.45;98812.22;105661;1257;72945;-23
2023/09/22 00:10:39;;;;;;;6.40;3.90;;;;;;;16.57;76.26;98812.69;105881;1257;74243;-23
2023/09/22 00:13:06;;;;;;;10.30;4.00;;;;;;;17.06;74.87;98808.75;105846;1258;72569;-23
2023/09/22 00:15:34;;;;;;;10.30;4.20;;;;;;;17.10;73.94;98807.45;105666;1253;61065;-24
2023/09/22 00:18:01;;;;;;;8.50;4.50;;;;;;;16.91;74.08;98809.33;105543;1255;61157;-23
2023/09/22 00:20:30;;;;;;;7.30;4.60;;;;;;;16.66;74.31;98813.10;105792;1254;72987;-23
2023/09/22 00:22:57;;;;;;;6.40;4.90;;;;;;;16.40;74.67;98816.09;105455;1260;74342;-23
2023/09/22 00:25:23;;;;;;;9.40;5.30;;;;;;;16.17;75.33;98816.05;105612;1254;72606;-23
2023/09/22 00:27:50;;;;;;;8.80;3.30;;;;;;;15.97;76.03;98818.89;105681;1254;61827;-23
2023/09/22 00:30:18;;;;;;;6.60;3.20;;;;;;;16.35;76.12;98816.56;105675;1257;61186;-23
2023/09/22 00:32:45;;;;;;;6.20;3.50;;;;;;;16.84;74.60;98812.58;105605;1254;72966;-23
2023/09/22 00:35:14;;;;;;;6.20;3.80;;;;;;;16.89;74.02;98813.11;105748;1259;74126;-23
2023/09/22 00:37:40;;;;;;;6.70;4.50;;;;;;;16.69;73.68;98812.48;105712;1255;72530;-23
2023/09/22 00:40:08;;;;;;;9.70;5.10;;;;;;;16.46;74.44;98811.32;105619;1254;61139;-23
2023/09/22 00:42:37;;;;;;;6.70;4.60;;;;;;;16.21;74.67;98814.49;105633;1255;61111;-23
2023/09/22 00:45:05;;;;;;;9.70;5.10;;;;;;;15.97;75.01;98814.94;105842;1257;71864;-24
2023/09/22 00:47:33;;;;;;;5.20;3.30;;;;;;;15.79;76.05;98814.82;105678;1258;74231;-21
2023/09/22 00:50:00;;;;;;;6.30;3.10;;;;;;;16.17;75.88;98813.84;105624;1254;71453;-21
2023/09/22 00:52:27;;;;;;;5.70;3.60;;;;;;;16.66;74.44;98809.09;105687;1257;61168;-22
2023/09/22 00:54:54;;;;;;;7.10;3.80;;;;;;;16.72;73.37;98807.88;105777;1257;61114;-22
2023/09/22 00:57:21;;;;;;;7.40;4.50;;;;;;;16.55;73.41;98808.56;105728;1255;73065;-22
2023/09/22 00:59:48;;;;;;;8.10;4.40;;;;;;;16.31;73.92;98812.73;105751;1254;74071;-22
2023/09/22 01:02:18;;;;;;;6.20;4.00;;;;;;;16.05;74.61;98813.11;105631;1258;72701;-21
2023/09/22 01:04:45;;;;;;;4.90;4.10;;;;;;;15.84;74.72;98811.12;105669;1257;61070;-21
2023/09/22 01:07:12;;;;;;;5.00;3.00;;;;;;;15.66;75.48;98812.64;105582;1260;61195;-21
2023/09/22 01:09:41;;;;;;;5.00;2.90;;;;;;;16.03;75.62;98811.20;105870;1254;72738;-21
2023/09/22 01:12:09;;;;;;;5.90;3.50;;;;;;;16.52;74.25;98805.78;105599;1255;73908;-21
2023/09/22 01:14:36;;;;;;;7.30;4.20;;;;;;;16.57;73.30;98805.40;105577;1256;72504;-22
2023/09/22 01:17:03;;;;;;;7.40;3.90;;;;;;;16.40;73.25;98808.58;105681;1254;61040;-21
2023/09/22 01:19:30;;;;;;;6.50;4.40;;;;;;;16.16;73.48;98803.15;105610;1254;61096;-21
2023/09/22 01:21:57;;;;;;;7.30;3.80;;;;;;;15.92;74.26;98804.69;105554;1254;72997;-21
2023/09/22 01:24:25;;;;;;;6.40;4.60;;;;;;;15.70;74.47;98803.30;105882;1254;74397;-22
2023/09/22 01:26:52;;;;;;;6.40;3.10;;;;;;;15.52;75.36;98802.54;105689;1255;72499;-23
2023/09/22 01:29:19;;;;;;;6.00;3.20;;;;;;;15.91;75.51;98800.52;105564;1261;61126;-23
2023/09/22 01:31:46;;;;;;;8.40;3.60;;;;;;;16.41;73.95;98799.39;105707;1256;61173;-21
2023/09/22 01:34:15;;;;;;;6.00;4.00;;;;;;;16.47;73.03;98797.82;105693;1254;72860;-21
2023/09/22 01:36:43;;;;;;;8.30;3.90;;;;;;;16.31;72.97;98797.33;105869;1254;74731;-22
2023/09/22 01:39:16;;;;;;;6.40;4.10;;;;;;;16.06;73.29;98797.59;105688;1254;71468;-21
2023/09/22 01:41:43;;;;;;;4.30;3.80;;;;;;;15.81;73.83;98803.51;105645;1257;61148;-22
2023/09/22 01:44:11;;;;;;;4.90;3.40;;;;;;;15.57;74.81;98800.60;105714;1257;61183;-22
2023/09/22 01:46:38;;;;;;;6.10;2.90;;;;;;;15.41;75.37;98804.77;105469;1255;72949;-23
2023/09/22 01:49:05;;;;;;;8.00;2.90;;;;;;;15.79;75.43;98799.36;105536;1257;74377;-22
2023/09/22 01:51:32;;;;;;;7.10;3.10;;;;;;;16.30;73.59;98797.83;105476;1255;72364;-22
2023/09/22 01:54:00;;;;;;;5.50;3.60;;;;;;;16.37;72.75;98796.20;105678;1254;61610;-22
2023/09/22 01:56:27;;;;;;;5.20;4.50;;;;;;;16.19;72.93;98799.98;105758;1254;61564;-23
2023/09/22 01:58:54;;;;;;;5.80;3.70;;;;;;;15.96;73.51;98795.79;105613;1257;73054;-23
2023/09/22 02:01:22;;;;;;;5.40;3.70;;;;;;;15.73;73.60;98799.66;105885;1256;74462;-23
2023/09/22 02:03:49;;;;;;;6.30;4.10;;;;;;;15.51;74.14;98799.20;105716;1254;72454;-23
2023/09/22 02:06:16;;;;;;;4.90;3.00;;;;;;;15.32;75.19;98797.44;105708;1254;61785;-23
2023/09/22 02:08:43;;;;;;;4.60;2.90;;;;;;;15.68;75.14;98795.78;105546;1252;61192;-23
2023/09/22 02:11:11;;;;;;;7.30;3.70;;;;;;;16.17;73.70;98791.20;105496;1254;73032;-23
2023/09/22 02:13:40;;;;;;;6.70;3.70;;;;;;;16.21;72.91;98794.70;105489;1255;74278;-23
2023/09/22 02:16:07;;;;;;;8.80;4.30;;;;;;;16.04;72.71;98796.80;105574;1254;72391;-23
2023/09/22 02:18:35;;;;;;;8.00;3.80;;;;;;;15.79;73.28;98797.60;105544;1253;61026;-23
2023/09/22 02:21:03;;;;;;;11.00;4.40;;;;;;;15.56;73.75;98800.24;105527;1257;61144;-23
2023/09/22 02:23:30;;;;;;;7.30;4.40;;;;;;;15.34;74.12;98796.23;105542;1254;73584;-23
2023/09/22 02:26:06;;;;;;;5.00;2.70;;;;;;;15.16;75.40;98795.17;105608;1257;74240;-23
2023/09/22 02:28:33;;;;;;;5.90;3.20;;;;;;;15.55;75.12;98793.80;105543;1257;71098;-23
2023/09/22 02:31:01;;;;;;;7.20;3.80;;;;;;;16.02;73.87;98791.76;105378;1254;61093;-23
2023/09/22 02:33:29;;;;;;;6.70;4.30;;;;;;;16.05;73.10;98793.45;105484;1260;61199;-23
2023/09/22 02:35:56;;;;;;;8.90;4.60;;;;;;;15.89;72.86;98795.92;105684;1256;72785;-23
2023/09/22 02:38:24;;;;;;;10.20;4.30;;;;;;;15.65;73.01;98794.05;105692;1254;74798;-24
2023/09/22 02:40:52;;;;;;;10.10;4.40;;;;;;;15.41;73.62;98795.90;105580;1254;71499;-23
2023/09/22 02:43:19;;;;;;;8.00;4.40;;;;;;;15.18;74.51;98792.49;105532;1254;61071;-23
2023/09/22 02:45:46;;;;;;;9.20;3.20;;;;;;;15.01;74.90;98793.30;105664;1256;61455;-23
2023/09/22 02:48:13;;;;;;;5.70;3.30;;;;;;;15.37;75.28;98795.60;105646;1254;73249;-23
2023/09/22 02:50:40;;;;;;;5.60;3.70;;;;;;;15.85;73.72;98790.39;105886;1254;73367;-23
2023/09/22 02:53:07;;;;;;;5.90;3.70;;;;;;;15.91;72.84;98794.73;105861;1257;72682;-23
2023/09/22 02:55:37;;;;;;;6.40;4.10;;;;;;;15.76;72.81;98789.15;105817;1257;61147;-23
2023/09/22 02:58:04;;;;;;;5.70;4.10;;;;;;;15.53;73.02;98786.05;105601;1254;61097;-24
2023/09/22 03:00:31;;;;;;;8.00;4.20;;;;;;;15.28;73.59;98786.52;105551;1254;73523;-23
2023/09/22 03:02:58;;;;;;;7.30;4.50;;;;;;;15.04;73.97;98786.04;105525;1257;74826;-23
2023/09/22 03:05:25;;;;;;;8.70;3.20;;;;;;;14.85;74.70;98783.17;105507;1254;72349;-23
2023/09/22 03:07:55;;;;;;;4.60;3.00;;;;;;;15.20;75.04;98784.27;105499;1260;61253;-23
2023/09/22 03:10:23;;;;;;;7.20;3.60;;;;;;;15.69;73.70;98787.98;105556;1254;61035;-23
2023/09/22 03:12:53;;;;;;;6.10;3.50;;;;;;;15.73;72.53;98781.94;105225;1255;72709;-23
2023/09/22 03:15:22;;;;;;;8.20;4.20;;;;;;;15.56;72.84;98777.35;105592;1253;74371;-23
2023/09/22 03:17:49;;;;;;;6.90;4.40;;;;;;;15.35;73.01;98785.31;105532;1254;72636;-23
2023/09/22 03:20:17;;;;;;;7.80;5.00;;;;;;;15.10;73.60;98784.91;105542;1254;61193;-23
2023/09/22 03:22:45;;;;;;;7.50;4.90;;;;;;;14.87;74.26;98783.09;105584;1257;61179;-23
2023/09/22 03:25:13;;;;;;;10.60;3.50;;;;;;;14.71;74.44;98782.98;105513;1260;72460;-24
2023/09/22 03:27:42;;;;;;;8.30;3.40;;;;;;;15.10;75.14;98780.17;105549;1257;74220;-24
2023/09/22 03:30:11;;;;;;;5.30;3.70;;;;;;;15.59;73.46;98776.31;105564;1259;72481;-24
2023/09/22 03:32:39;;;;;;;13.00;3.80;;;;;;;15.63;72.75;98775.33;105538;1259;61084;-23
2023/09/22 03:35:08;;;;;;;8.00;4.30;;;;;;;15.46;72.71;98782.42;105925;1254;61071;-23
2023/09/22 03:37:36;;;;;;;6.90;4.60;;;;;;;15.22;73.18;98783.29;105907;1254;72678;-23
2023/09/22 03:40:14;;;;;;;8.00;4.90;;;;;;;15.00;74.03;98782.66;105600;1254;74279;-23
2023/09/22 03:42:43;;;;;;;10.80;5.10;;;;;;;14.75;74.44;98784.84;105656;1254;72493;-24
2023/09/22 03:45:11;;;;;;;5.30;3.00;;;;;;;14.56;75.38;98783.21;105510;1261;61624;-23
2023/09/22 03:47:39;;;;;;;5.90;3.20;;;;;;;14.96;75.65;98786.02;105569;1259;61392;-23
2023/09/22 03:50:07;;;;;;;5.80;3.60;;;;;;;15.44;73.82;98782.76;105498;1254;74376;-23
2023/09/22 03:52:34;;;;;;;7.90;4.30;;;;;;;15.49;73.24;98782.46;105629;1254;74347;-24
2023/09/22 03:55:02;;;;;;;4.50;3.80;;;;;;;15.34;73.19;98789.77;105471;1260;71081;-23
2023/09/22 03:57:29;;;;;;;7.10;4.70;;;;;;;15.13;73.67;98786.74;105830;1253;61059;-23
2023/09/22 03:59:57;;;;;;;8.90;4.40;;;;;;;14.91;74.14;98786.48;105879;1254;61090;-23
2023/09/22 04:02:27;;;;;;;10.10;4.40;;;;;;;14.69;74.94;98791.05;105721;1254;73960;-24
2023/09/22 04:04:54;;;;;;;4.20;2.70;;;;;;;14.52;75.51;98794.82;105796;1257;74152;-23
2023/09/22 04:07:21;;;;;;;9.30;3.10;;;;;;;14.93;75.78;98795.05;105726;1254;73271;-23
2023/09/22 04:09:48;;;;;;;8.10;3.80;;;;;;;15.45;73.93;98798.05;105546;1254;61116;-23
2023/09/22 04:12:15;;;;;;;11.70;4.20;;;;;;;15.50;72.77;98799.44;105526;1255;61163;-24
2023/09/22 04:14:43;;;;;;;7.00;4.00;;;;;;;15.35;73.04;98802.27;105712;1254;72853;-23
2023/09/22 04:17:10;;;;;;;6.50;4.60;;;;;;;15.14;73.43;98803.79;105766;1254;74323;-23
2023/09/22 04:19:37;;;;;;;6.80;4.30;;;;;;;14.92;74.06;98795.35;105632;1254;72693;-23
2023/09/22 04:22:07;;;;;;;8.50;4.80;;;;;;;14.75;74.59;98796.29;105528;1253;61062;-23
2023/09/22 04:24:34;;;;;;;3.90;2.80;;;;;;;14.63;75.04;98792.86;105488;1260;61598;-24
2023/09/22 04:27:06;;;;;;;6.30;3.00;;;;;;;15.09;74.75;98793.62;105746;1254;73823;-23
2023/09/22 04:29:38;;;;;;;12.40;3.70;;;;;;;15.68;73.18;98798.50;105548;1260;74216;-22
2023/09/22 04:32:05;;;;;;;6.40;3.60;;;;;;;15.80;72.03;98804.16;105673;1254;72682;-23
2023/09/22 04:34:33;;;;;;;5.20;3.60;;;;;;;15.72;72.14;98802.90;105704;1254;61048;-24
2023/09/22 04:37:04;;;;;;;6.80;4.40;;;;;;;15.59;72.10;98803.27;105600;1255;61119;-24
2023/09/22 04:39:32;;;;;;;7.00;3.90;;;;;;;15.47;72.49;98802.59;105530;1254;73785;-23
2023/09/22 04:41:59;;;;;;;4.50;3.90;;;;;;;15.35;72.58;98804.86;105542;1254;74284;-22
2023/09/22 04:44:27;;;;;;;7.50;4.20;;;;;;;15.29;73.20;98803.04;105748;1257;71638;-23
2023/09/22 04:46:54;;;;;;;5.00;2.70;;;;;;;15.29;73.30;98800.05;105488;1258;61916;-23
2023/09/22 04:49:21;;;;;;;6.60;3.20;;;;;;;15.89;73.22;98802.17;105549;1257;61064;-23
2023/09/22 04:51:48;;;;;;;8.30;3.10;;;;;;;16.61;70.77;98801.58;105640;1254;73647;-23
2023/09/22 04:54:16;;;;;;;8.80;3.60;;;;;;;16.92;69.53;98804.50;105523;1254;74217;-23
2023/09/22 04:56:45;;;;;;;9.10;3.20;;;;;;;16.97;68.61;98800.48;105512;1254;72462;-23
2023/09/22 04:59:11;;;;;;;8.20;3.60;;;;;;;16.95;68.69;98798.89;105658;1254;61157;-23
2023/09/22 05:01:39;;;;;;;7.70;3.60;;;;;;;16.94;68.58;98800.74;105820;1253;61265;-23
2023/09/22 05:04:06;;;;;;;6.80;4.20;;;;;;;16.93;68.43;98798.93;105842;1254;73708;-23
2023/09/22 05:06:33;;;;;;;5.20;3.50;;;;;;;16.94;68.54;98796.57;105756;1257;74392;-23
2023/09/22 05:09:02;;;;;;;6.10;4.30;;;;;;;16.94;68.72;98797.91;105785;1254;72642;-23
2023/09/22 05:11:29;;;;;;;6.80;4.00;;;;;;;16.95;68.61;98796.10;105751;1254;61256;-23
2023/09/22 05:13:56;;;;;;;8.10;3.90;;;;;;;16.95;68.53;98798.70;105630;1257;61119;-23
2023/09/22 05:16:23;;;;;;;6.00;3.90;;;;;;;16.94;68.70;98796.04;105606;1254;73709;-23
2023/09/22 05:18:50;;;;;;;5.00;3.00;;;;;;;16.97;69.03;98793.63;105534;1255;74477;-22
2023/09/22 05:21:18;;;;;;;7.50;3.30;;;;;;;17.57;68.29;98794.42;105830;1253;72855;-22
2023/09/22 05:23:45;;;;;;;4.00;3.10;;;;;;;18.18;66.02;98793.06;105651;1254;61124;-22
2023/09/22 05:26:13;;;;;;;8.00;3.80;;;;;;;18.30;65.17;98799.92;105549;1256;61170;-22
2023/09/22 05:28:40;;;;;;;6.40;3.90;;;;;;;18.18;65.27;98798.42;105555;1254;74433;-22
2023/09/22 05:31:08;;;;;;;10.00;4.00;;;;;;;18.00;65.53;98799.28;105736;1255;74876;-23
2023/09/22 05:33:40;;;;;;;7.90;4.30;;;;;;;17.87;66.34;98802.73;105529;1254;72630;-23
2023/09/22 05:36:07;;;;;;;5.60;3.70;;;;;;;17.82;66.62;98805.92;105611;1252;61133;-23
2023/09/22 05:38:35;;;;;;;5.70;3.70;;;;;;;17.76;66.84;98808.73;105723;1254;61148;-23
2023/09/22 05:41:03;;;;;;;5.00;3.40;;;;;;;17.65;67.05;98809.81;105494;1254;73515;-23
2023/09/22 05:43:31;;;;;;;10.60;3.90;;;;;;;17.55;67.51;98809.52;105541;1254;74396;-23
2023/09/22 05:45:58;;;;;;;6.70;3.30;;;;;;;17.50;68.23;98809.80;105744;1254;72631;-23
2023/09/22 05:48:25;;;;;;;4.70;2.70;;;;;;;17.51;68.30;98809.84;105538;1257;62017;-23
2023/09/22 05:50:56;;;;;;;5.70;2.60;;;;;;;18.06;67.57;98808.46;105554;1256;61071;-23
2023/09/22 05:53:27;;;;;;;6.10;2.90;;;;;;;18.71;65.28;98804.95;105454;1254;71753;-23
2023/09/22 05:56:21;;;;;;;4.80;2.70;;;;;;;18.89;64.66;98808.78;105512;1259;74390;-22
2023/09/22 05:58:48;;;;;;;7.90;3.30;;;;;;;18.84;64.21;98810.92;105538;1254;71725;-22
2023/09/22 06:01:15;;;;;;;5.70;3.50;;;;;;;18.71;64.55;98808.73;105642;1253;61175;-22
2023/09/22 06:03:44;;;;;;;6.30;3.50;;;;;;;18.61;64.68;98812.79;105606;1255;61112;-23
2023/09/22 06:06:12;;;;;;;5.60;3.20;;;;;;;18.46;65.01;98813.94;105647;1254;73707;-22
2023/09/22 06:08:40;;;;;;;11.00;2.90;;;;;;;18.36;65.35;98817.84;105483;1259;74313;-22
2023/09/22 06:11:08;;;;;;;7.80;3.60;;;;;;;18.21;65.68;98814.14;105438;1254;72622;-22
2023/09/22 06:13:35;;;;;;;5.60;3.20;;;;;;;18.10;66.14;98821.49;105497;1254;61105;-22
2023/09/22 06:16:02;;;;;;;4.80;3.30;;;;;;;18.05;66.24;98824.98;105522;1255;61134;-23
2023/09/22 06:18:30;;;;;;;4.00;2.80;;;;;;;17.96;66.71;98826.80;105455;1254;73583;-24
2023/09/22 06:20:59;;;;;;;7.40;3.40;;;;;;;17.92;67.12;98831.34;105500;1254;74548;-22
2023/09/22 06:23:27;;;;;;;3.50;3.20;;;;;;;17.93;67.16;98828.86;105579;1259;71649;-22
2023/09/22 06:26:00;;;;;;;4.50;2.40;;;;;;;17.98;67.04;98827.65;105582;1254;62012;-22
2023/09/22 06:28:27;;;;;;;3.00;2.20;;;;;;;18.57;66.48;98828.70;105530;1254;61147;-22
2023/09/22 06:31:04;;;;;;;6.90;2.60;;;;;;;19.16;63.95;98827.95;105670;1254;75158;-23
2023/09/22 06:33:31;;;;;;;5.90;2.80;;;;;;;19.28;62.85;98828.23;105474;1254;74445;-23
2023/09/22 06:36:03;;;;;;;3.50;2.70;;;;;;;19.21;62.96;98827.14;105524;1254;72631;-22
2023/09/22 06:38:33;;;;;;;4.30;3.10;;;;;;;19.08;63.15;98829.77;105366;1253;61160;-23
2023/09/22 06:41:00;;;;;;;8.20;3.10;;;;;;;18.93;63.53;98832.35;105530;1259;61073;-23
2023/09/22 06:43:30;;;;;;;6.00;2.80;;;;;;;18.79;64.00;98833.70;105749;1257;72560;-22
2023/09/22 06:46:02;;;;;;;7.30;3.20;;;;;;;18.66;64.20;98836.75;105519;1254;73246;-23
2023/09/22 06:48:31;;;;;;;4.50;2.60;;;;;;;18.59;64.44;98835.48;105498;1259;72582;-24
2023/09/22 06:50:58;;;;;;;5.50;3.20;;;;;;;18.58;64.39;98839.44;105357;1254;61132;-22
2023/09/22 06:53:26;;;;;;;8.30;3.00;;;;;;;18.62;64.42;98843.98;105683;1254;61131;-22
2023/09/22 06:56:06;;;;;;;6.40;2.90;;;;;;;18.68;64.36;98842.56;105714;1259;73629;-22
2023/09/22 06:58:36;;;;;;;6.70;2.80;;;;;;;18.77;64.16;98844.44;105842;1254;74218;-23
2023/09/22 07:01:10;;;;;;;6.10;3.10;;;;;;;18.93;64.07;98844.03;105712;1254;72452;-22
2023/09/22 07:03:41;;;;;;;5.80;3.30;;;;;;;19.11;63.47;98839.55;105680;1253;61182;-22
2023/09/22 07:06:10;;;;;;;5.80;3.00;;;;;;;19.34;62.24;98840.65;105658;1253;61049;-23
2023/09/22 07:08:37;;;;;;;6.50;3.30;;;;;;;19.61;61.06;98839.57;105582;1254;73834;-22
2023/09/22 07:11:10;;;;;;;5.50;2.90;;;;;;;19.91;60.46;98841.17;105648;1254;74559;-23
2023/09/22 07:13:37;;;;;;;4.80;3.10;;;;;;;20.22;58.46;98837.89;105709;1253;72691;-22
2023/09/22 07:16:04;;;;;;;3.90;2.70;;;;;;;20.44;55.79;98836.35;105657;1254;61182;-22
2023/09/22 07:18:32;;;;;;;3.80;2.50;;;;;;;20.62;55.32;98836.38;105804;1252;61732;-23
2023/09/22 07:21:00;;;;;;;4.70;3.00;;;;;;;20.83;54.82;98832.30;105792;1254;73723;-23
2023/09/22 07:23:27;;;;;;;8.00;2.90;;;;;;;20.98;53.91;98833.13;105913;1256;74374;-24
2023/09/22 07:26:03;;;;;;;4.60;2.10;;;;;;;20.98;53.43;98834.15;105805;1256;72471;-24
2023/09/22 07:28:31;;;;;;;5.80;2.50;;;;;;;20.97;53.14;98833.17;105739;1253;61327;-23
2023/09/22 07:30:58;;;;;;;3.80;2.00;;;;;;;20.95;53.10;98838.05;105629;1254;61088;-25
2023/09/22 07:33:30;;;;;;;6.20;2.70;;;;;;;21.01;53.40;98839.05;105646;1256;73825;-23
2023/09/22 07:35:59;;;;;;;5.20;2.70;;;;;;;21.19;52.70;98834.58;105602;1253;74410;-24
2023/09/22 07:38:26;;;;;;;6.80;2.30;;;;;;;21.38;50.85;98833.94;105764;1256;73073;-23
2023/09/22 07:40:53;;;;;;;5.70;2.50;;;;;;;21.44;49.77;98837.73;105619;1254;61097;-22
2023/09/22 07:43:20;;;;;;;5.60;2.50;;;;;;;21.52;49.49;98837.86;105605;1256;61239;-22
2023/09/22 07:45:49;;;;;;;4.30;2.40;;;;;;;21.62;48.47;98829.63;105792;1254;73664;-22
2023/09/22 07:48:16;;;;;;;7.40;2.40;;;;;;;21.69;48.23;98833.06;105840;1254;74350;-22
2023/09/22 07:50:43;;;;;;;6.10;2.70;;;;;;;21.82;48.02;98835.44;105517;1254;72069;-22
2023/09/22 07:53:10;;;;;;;6.60;2.20;;;;;;;22.00;48.05;98837.55;105659;1253;61144;-22
2023/09/22 07:55:38;;;;;;;6.70;2.40;;;;;;;22.20;47.85;98834.10;105881;1257;61124;-22
2023/09/22 07:58:06;;;;;;;5.70;2.20;;;;;;;22.39;47.26;98829.86;105760;1254;73085;-22
2023/09/22 08:00:34;;;;;;;4.20;2.30;;;;;;;22.55;46.57;98824.43;105766;1254;73323;-22
2023/09/22 08:03:01;;;;;;;2.70;2.40;;;;;;;22.70;45.39;98824.70;105882;1254;72634;-22
2023/09/22 08:05:28;;;;;;;5.40;2.30;;;;;;;22.87;44.01;98819.05;105634;1254;61574;-22
2023/09/22 08:07:58;;;;;;;4.40;2.50;;;;;;;23.01;43.61;98827.14;105685;1255;61095;-22
2023/09/22 08:10:25;;;;;;;5.40;2.20;;;;;;;23.20;42.55;98824.26;105710;1254;73826;-22
2023/09/22 08:12:53;;;;;;;4.30;2.30;;;;;;;23.38;41.48;98822.27;105511;1254;75047;-22
2023/09/22 08:15:21;;;;;;;5.80;2.30;;;;;;;23.53;40.59;98818.59;105676;1254;72465;-22
2023/09/22 08:17:52;;;;;;;4.10;2.20;;;;;;;23.72;40.16;98816.81;105663;1257;61169;-22
2023/09/22 08:20:19;;;;;;;4.80;2.00;;;;;;;23.93;39.76;98821.98;105494;1255;61125;-22
2023/09/22 08:22:47;;;;;;;5.70;2.40;;;;;;;24.13;38.65;98811.39;105612;1253;74181;-22
2023/09/22 08:25:14;;;;;;;5.40;2.40;;;;;;;24.23;38.05;98815.88;105560;1254;74187;-22
2023/09/22 08:27:42;;;;;;;3.00;2.00;;;;;;;24.28;37.76;98814.18;105577;1254;72509;-22
2023/09/22 08:30:11;;;;;;;3.80;1.90;;;;;;;24.29;37.50;98812.35;105575;1253;61140;-22
2023/09/22 08:32:42;;;;;;;7.40;2.30;;;;;;;24.29;37.64;98810.08;105625;1259;61158;-22
2023/09/22 08:35:10;;;;;;;7.60;2.10;;;;;;;24.52;37.75;98810.67;105744;1254;73783;-22
2023/09/22 08:37:40;;;;;;;8.20;2.30;;;;;;;24.67;36.46;98810.92;105504;1258;74343;-22
2023/09/22 08:40:14;;;;;;;3.70;2.00;;;;;;;24.71;36.00;98808.20;105483;1254;74017;-22
2023/09/22 08:42:45;;;;;;;3.50;2.00;;;;;;;24.81;36.21;98813.88;105518;1257;61163;-22
2023/09/22 08:45:13;;;;;;;5.30;2.00;;;;;;;24.89;35.99;98809.79;105480;1257;61090;-22
2023/09/22 08:47:42;;;;;;;9.40;2.30;;;;;;;24.91;36.19;98810.86;105579;1254;73986;-22
2023/09/22 08:50:16;;;;;;;7.90;2.60;;;;;;;24.98;36.18;98809.78;105530;1254;74836;-23
2023/09/22 08:52:45;;;;;;;5.10;2.10;;;;;;;25.15;36.31;98812.66;105519;1257;72589;-22
2023/09/22 08:55:14;;;;;;;4.00;2.20;;;;;;;25.34;35.66;98809.27;105527;1252;61090;-22
2023/09/22 08:57:44;;;;;;;11.10;2.20;;;;;;;25.42;35.65;98809.19;105540;1254;61098;-22
2023/09/22 09:00:23;;;;;;;6.80;2.70;;;;;;;25.57;35.40;98801.27;105536;1254;73640;-22
2023/09/22 09:02:51;;;;;;;3.40;2.20;;;;;;;25.71;35.29;98797.05;105621;1254;73762;-22
2023/09/22 09:05:20;;;;;;;4.90;2.20;;;;;;;25.76;34.84;98794.26;105567;1254;74020;-22
2023/09/22 09:07:48;;;;;;;7.50;2.60;;;;;;;25.86;34.49;98794.83;105526;1254;61238;-22
2023/09/22 09:10:29;;;;;;;4.40;2.00;;;;;;;25.90;34.61;98796.80;105506;1255;61686;-22
2023/09/22 09:13:01;;;;;;;4.20;2.70;;;;;;;26.22;34.40;98797.62;105382;1254;73830;-22
2023/09/22 09:15:41;;;;;;;8.40;2.10;;;;;;;26.59;34.15;98792.40;105651;1258;74481;-22
2023/09/22 09:18:11;;;;;;;4.40;2.50;;;;;;;26.72;32.88;98791.17;105673;1254;72684;-22
2023/09/22 09:20:40;;;;;;;6.40;2.50;;;;;;;26.90;32.56;98796.45;105659;1254;61106;-23
2023/09/22 09:23:18;;;;;;;5.30;2.30;;;;;;;27.12;32.62;98793.11;105594;1254;61156;-22
2023/09/22 09:25:50;;;;;;;11.30;2.80;;;;;;;27.49;31.46;98786.35;105775;1253;75167;-22
2023/09/22 09:28:18;;;;;;;6.00;2.10;;;;;;;27.73;31.24;98789.14;105384;1254;74544;-22
2023/09/22 09:30:54;;;;;;;7.10;2.50;;;;;;;27.99;30.51;98783.30;105804;1254;73047;-22
2023/09/22 09:33:31;;;;;;;5.80;2.10;;;;;;;27.98;29.87;98786.94;105490;1252;61163;-22
2023/09/22 09:35:59;;;;;;;5.60;2.30;;;;;;;28.01;29.94;98786.98;105541;1254;61676;-23
2023/09/22 09:38:28;;;;;;;6.30;2.20;;;;;;;28.17;29.93;98787.98;105600;1254;75204;-22
2023/09/22 09:40:56;;;;;;;8.30;2.10;;;;;;;28.25;29.55;98792.36;105518;1254;74816;-23
2023/09/22 09:43:24;;;;;;;5.20;2.40;;;;;;;28.42;29.25;98789.52;105591;1254;72684;-23
2023/09/22 09:45:56;;;;;;;2.80;1.80;;;;;;;28.32;29.61;98787.31;105753;1254;61004;-24
2023/09/22 09:48:24;;;;;;;;;;;;;;;28.50;29.24;98781.32;105807;1257;61230;-22
2023/09/22 09:50:53;;;;;;;5.00;2.10;;;;;;;28.52;29.01;98780.96;105923;1255;73811;-23
2023/09/22 09:53:28;;;;;;;6.30;2.20;;;;;;;28.39;29.65;98783.33;105630;1254;74431;-22
2023/09/22 09:55:59;;;;;;;6.00;2.50;;;;;;;28.78;29.25;98783.79;105425;1254;73075;-21
2023/09/22 09:58:28;;;;;;;4.80;1.80;;;;;;;29.10;28.56;98784.42;105511;1254;61099;-22
2023/09/22 10:00:56;;;;;;;6.70;2.40;;;;;;;29.20;28.11;98780.23;105557;1254;61163;-23
2023/09/22 10:03:25;;;;;;;7.10;2.30;;;;;;;29.32;28.63;98780.28;105631;1257;74189;-24
2023/09/22 10:05:55;;;;;;;6.20;1.90;;;;;;;29.44;28.45;98774.45;105621;1259;74809;-24
2023/09/22 10:08:26;;;;;;;4.40;2.20;;;;;;;29.43;27.90;98766.13;105692;1256;73392;-23
2023/09/22 10:10:59;;;;;;;4.90;2.20;;;;;;;29.48;27.74;98768.48;105618;1253;61116;-23
2023/09/22 10:13:26;;;;;;;3.90;1.80;;;;;;;29.74;27.74;98765.16;105579;1254;61174;-23
2023/09/22 10:16:01;;;;;;;7.30;2.10;;;;;;;30.06;27.55;98761.72;105596;1252;73101;-24
2023/09/22 10:18:46;;;;;;;4.40;2.30;;;;;;;30.31;27.06;98765.42;105643;1254;67443;-24
2023/09/22 10:21:33;;;;;;;4.70;2.20;;;;;;;30.47;26.91;98761.09;105566;1254;65657;-23
2023/09/22 10:24:15;;;;;;;3.30;2.00;;;;;;;30.76;26.26;98762.21;105639;1252;61091;-24
2023/09/22 10:26:55;;;;;;;5.70;2.50;;;;;;;30.77;25.98;98764.05;105650;1254;61166;-24
2023/09/22 10:29:37;;;;;;;8.10;2.40;;;;;;;30.93;26.06;98763.52;105950;1256;67173;-23
2023/09/22 10:34:51;;;;;;;4.90;2.10;;;;;;;31.23;25.70;98759.17;105918;1253;65776;-24
2023/09/22 10:37:19;;;;;;;4.70;2.00;;;;;;;30.96;25.09;98757.14;105634;1252;61646;-24
2023/09/22 10:40:08;;;;;;;6.60;1.80;;;;;;;30.81;25.44;98754.48;105638;1260;61134;-23
2023/09/22 10:42:44;;;;;;;8.10;2.00;;;;;;;30.82;25.76;98761.80;105606;1254;67179;-24
2023/09/22 10:45:17;;;;;;;3.90;2.00;;;;;;;30.80;25.82;98762.98;105770;1254;66499;-23
2023/09/22 10:47:52;;;;;;;4.90;1.90;;;;;;;30.81;25.84;98760.45;105534;1254;63895;-23
2023/09/22 10:50:24;;;;;;;4.80;1.90;;;;;;;30.87;25.43;98756.66;105518;1252;61183;-23
2023/09/22 10:53:05;;;;;;;5.90;2.00;;;;;;;30.83;25.70;98757.50;105344;1254;61173;-24
2023/09/22 10:55:36;;;;;;;3.00;1.90;;;;;;;30.73;25.59;98754.69;105414;1254;73844;-23
2023/09/22 10:58:10;;;;;;;6.10;1.90;;;;;;;30.83;25.60;98759.80;105384;1254;67536;-24
2023/09/22 11:00:40;;;;;;;5.40;2.10;;;;;;;30.80;25.54;98764.69;103380;1254;3068532;-24
2023/09/22 11:03:11;;;;;;;4.90;2.20;;;;;;;30.55;25.51;98765.84;105626;1254;61183;-24
2023/09/22 11:05:39;;;;;;;5.70;2.30;;;;;;;30.49;25.47;98771.67;105586;1254;61170;-24
2023/09/22 11:08:13;;;;;;;6.00;2.20;;;;;;;30.12;25.60;98767.38;105594;1260;74303;-24
2023/09/22 11:10:43;;;;;;;3.20;2.10;;;;;;;29.58;26.41;98774.02;105632;1254;74377;-24
2023/09/22 11:13:12;;;;;;;7.90;2.20;;;;;;;29.37;27.17;98776.74;105629;1259;70787;-23
2023/09/22 11:16:12;;;;;;;5.30;2.50;;;;;;;29.60;27.37;98772.85;105639;1253;61078;-23
2023/09/22 11:18:39;;;;;;;5.60;2.50;;;;;;;29.88;26.75;98771.05;105437;1256;61169;-24
2023/09/22 11:21:10;;;;;;;6.50;2.20;;;;;;;29.98;27.14;98771.50;105847;1254;75125;-23
2023/09/22 11:23:41;;;;;;;4.50;2.00;;;;;;;30.07;26.62;98765.43;105634;1254;74317;-23
2023/09/22 11:26:10;;;;;;;8.30;2.70;;;;;;;29.70;26.85;98761.97;105547;1253;74037;-23
2023/09/22 11:28:41;;;;;;;5.10;2.30;;;;;;;29.31;27.70;98765.46;105473;1259;61994;-24
2023/09/22 11:31:16;;;;;;;4.10;2.60;;;;;;;29.32;27.50;98763.77;105685;1254;61368;-23
2023/09/22 11:33:45;;;;;;;6.00;2.20;;;;;;;29.34;27.50;98762.39;105708;1259;72364;-23
2023/09/22 11:36:13;;;;;;;7.60;2.30;;;;;;;29.30;27.71;98759.51;105753;1254;73637;-23